Terminal Aerodrome Forecast
Issued by NWS

Current Version | Previous Version | Graphics & Text | Print | Product List | Glossary On
Versions: 1 2 3 4 5 6 7 8 9 10 11 12 13 14 15 16 17 18 19 20 21 22 23 24 25 26 27 28 29 30 31 32 33 34 35 36
000
FTUS41 KRNK 270520
TAFLWB
TAF
KLWB 270520Z 2706/2806 29008G16KT 6SM -SN OVC015
      TEMPO 2706/2710 5SM -SN OVC008
     FM271200 29009G17KT 4SM -SN OVC012
     FM271700 30008G16KT P6SM -SHSN SCT013 OVC015
      TEMPO 2717/2721 5SM -SHSN BKN013
     FM272300 30006KT P6SM BKN018=

USA.gov is the U.S. government's official web portal to all federal, state and local government web resources and services.